Belmullet, Ireland
Current Conditions -  °F | °C
As of 7:00 PM on Thursday 18 Dec 2014 (Local Time) from EIKN Reporting Station
Rain Showers Rain Showers  
Wind Chill: 35°   Ceiling: 3600
Heat Index: 43°   Visibility: 6mi
Dew Point: 41°   Wind: 15mph
Humidity: 93%   Direction: 250°WSW
Pressure: 29.62"   Gusts: NA
Location:  54.22°N, 10.01°W
Report Text: EIKN 181900Z 25013KT 9999 -SHRA FEW019CB BKN036 06/05 Q1003 NOSIG
Loading
Personal Weather Stations






























Interactive Weather Map New forecast layout! Learn more

10-Day Weather Forecast

Advertisements
Track Severe Weather on mobile